Etusivu
METAR-TAF:

METAR-TAF

Lentoasemat :

Ouagadougoun kansainvälinen lentoasema

Ouagadougou, Burkina Faso

Leveyspiiri: 12-21N, Pituuspiiri: 001-31W, korkeus merenpinnasta: 316 m

Tämänhetkinen sää

Tämä raportti tehtiin 56 minuuttia sitten, kello 03.00 UTC
Tuuli 2 kn pohjoisesta
Lämpötila 25°C
Kosteus 61%
Ilmanpaine 1011 hPa
Näkyvyys: 8000 m

METAR: DFFD 210300Z 36002KT 8000 NSC 25/17 Q1011 NOSIG

Aika: 03:56 (03:56 UTC)

Sääennuste

Tämä raportti tehtiin 4 tuntia ja 56 minuuttia sitten, kello 23.00 UTC
Ennuste voimassa 21. päivästä klo 00 UTC - 22. päivään klo 06 UTC
Tuuli 8 kn pohjoisesta/koillisesta
Näkyvyys: 6000 m
Tulossa
21. päivästä klo 04 UTC - 21. päivään klo 06 UTC
Näkyvyys: 4000 m
laajalle levinnyttä pölyä

TAF: DFFD 202300Z 2100/2206 02008KT 6000 NSC BECMG 2104/2106 4000 DU

Säähavainnot ja -ennusteet yli 4000 lentoasemalta (METAR- ja TAF-raportit).

Käytössä olevat sääasemat on merkitty karttaan keltaisilla ja punaisilla pisteillä.

Aseta hiiri pisteen päälle nähdäksesi sääaseman nimen.

Klikkaa sitten nähdäksesi säähavainnot ja -ennusteet.

Kartan vaihtaminen: klikkaa mustalla rastilla varustettuja vihreitä pisteitä, niin voit zoomata sisään; viivalla varustettua vihreää pistettä, niin voit zoomata ulos tai vihreitä nuolia, niin pääset viereisille kartoille.


METAR-TAF: